createdAt,value
2023-02-11T00:05:03.856Z,103226.09
2023-02-11T00:10:09.537Z,103245.72
2023-02-11T00:15:11.407Z,103245.59
2023-02-11T00:20:12.869Z,103232.41
2023-02-11T00:25:14.395Z,103231.66
2023-02-11T00:30:16.542Z,103235.66
2023-02-11T00:35:18.205Z,103235.22
2023-02-11T00:40:19.794Z,103240.91
2023-02-11T00:45:21.402Z,103240.13
2023-02-11T00:50:23.455Z,103231.97
2023-02-11T00:55:25.050Z,103248.16
2023-02-11T01:00:27.483Z,103244.38
2023-02-11T01:05:29.056Z,103242.81
2023-02-11T01:10:30.725Z,103227.44
2023-02-11T01:15:33.346Z,103213.81
2023-02-11T01:20:34.960Z,103192.59
2023-02-11T01:25:36.508Z,103190.47
2023-02-11T01:30:37.930Z,103194.03
2023-02-11T01:35:40.351Z,103187.75
2023-02-11T01:40:47.680Z,103201.91
2023-02-11T01:45:49.506Z,103209.59
2023-02-11T01:50:57.085Z,103226.78
2023-02-11T01:56:17.961Z,103216.50
2023-02-11T02:01:24.382Z,103210.59
2023-02-11T02:06:46.223Z,103212.06
2023-02-11T02:11:47.800Z,103218.44
2023-02-11T02:16:49.230Z,103228.34
2023-02-11T02:21:57.968Z,103214.84
2023-02-11T02:27:15.849Z,103212.84
2023-02-11T02:32:47.570Z,103205.44
2023-02-11T02:38:10.720Z,103198.00
2023-02-11T02:43:13.790Z,103182.25
2023-02-11T02:48:33.202Z,103179.34
2023-02-11T02:54:00.621Z,103182.69
2023-02-11T02:59:09.759Z,103189.69
2023-02-11T03:04:43.558Z,103174.75
2023-02-11T03:09:59.592Z,103174.75
2023-02-11T03:15:03.884Z,103177.31
2023-02-11T03:20:09.776Z,103164.16
2023-02-11T03:25:11.385Z,103159.16
2023-02-11T03:30:26.727Z,103159.25
2023-02-11T03:35:33.242Z,103154.22
2023-02-11T03:40:40.047Z,103155.00
2023-02-11T03:45:41.402Z,103157.81
2023-02-11T03:50:45.429Z,103140.66
2023-02-11T03:55:49.278Z,103138.97
2023-02-11T04:00:51.423Z,103122.72
2023-02-11T04:05:53.054Z,103144.91
2023-02-11T04:10:54.463Z,103160.59
2023-02-11T04:15:55.962Z,103165.97
2023-02-11T04:20:57.506Z,103170.31
2023-02-11T04:25:59.106Z,103183.16
2023-02-11T04:31:00.781Z,103172.88
2023-02-11T04:36:02.291Z,103175.69
2023-02-11T04:41:03.853Z,103171.03
2023-02-11T04:46:05.490Z,103173.59
2023-02-11T04:51:06.940Z,103180.16
2023-02-11T04:56:08.461Z,103182.97
2023-02-11T05:01:12.675Z,103158.84
2023-02-11T05:06:14.410Z,103163.09
2023-02-11T05:11:21.492Z,103171.66
2023-02-11T05:16:23.114Z,103163.97
2023-02-11T05:21:25.135Z,103158.84
2023-02-11T05:26:26.744Z,103168.91
2023-02-11T05:31:28.275Z,103159.53
2023-02-11T05:36:33.294Z,103162.09
2023-02-11T05:41:34.908Z,103169.69
2023-02-11T05:46:36.448Z,103169.69
2023-02-11T05:51:38.138Z,103170.78
2023-02-11T05:56:39.600Z,103166.31
2023-02-11T06:01:41.340Z,103169.53
2023-02-11T06:06:42.925Z,103178.13
2023-02-11T06:11:44.341Z,103178.25
2023-02-11T06:16:45.811Z,103187.63
2023-02-11T06:21:47.266Z,103182.50
2023-02-11T06:26:48.760Z,103185.97
2023-02-11T06:31:50.381Z,103183.25
2023-02-11T06:36:51.854Z,103179.00
2023-02-11T06:41:53.282Z,103175.81
2023-02-11T06:46:54.829Z,103181.03
2023-02-11T06:51:56.281Z,103180.16
2023-02-11T06:56:57.966Z,103184.50
2023-02-11T07:01:59.486Z,103185.16
2023-02-11T07:07:01.020Z,103190.41
2023-02-11T07:12:02.504Z,103200.13
2023-02-11T07:17:07.338Z,103212.06
2023-02-11T07:22:08.769Z,103211.94
2023-02-11T07:27:10.466Z,103219.75
2023-02-11T07:32:11.982Z,103224.88
2023-02-11T07:37:13.477Z,103217.41
2023-02-11T07:42:14.947Z,103227.81
2023-02-11T07:47:16.391Z,103231.28
2023-02-11T07:52:18.047Z,103221.22
2023-02-11T07:57:19.520Z,103222.91
2023-02-11T08:02:21.001Z,103233.41
2023-02-11T08:07:22.732Z,103230.16
2023-02-11T08:12:24.178Z,103233.72
2023-02-11T08:17:26.432Z,103223.81
2023-02-11T08:22:28.029Z,103233.28
2023-02-11T08:27:29.476Z,103225.28
2023-02-11T08:32:31.079Z,103221.94
2023-02-11T08:37:33.164Z,103229.56
2023-02-11T08:42:34.759Z,103228.88
2023-02-11T08:47:37.310Z,103232.13
2023-02-11T08:52:38.773Z,103242.97
2023-02-11T08:57:40.217Z,103239.28
2023-02-11T09:02:41.941Z,103247.31
2023-02-11T09:07:43.511Z,103264.19
2023-02-11T09:12:44.958Z,103268.00
2023-02-11T09:17:46.445Z,103262.56
2023-02-11T09:22:48.398Z,103267.44
2023-02-11T09:27:51.317Z,103275.50
2023-02-11T09:32:52.963Z,103265.78
2023-02-11T09:37:54.487Z,103266.44
2023-02-11T09:43:11.865Z,103265.09
2023-02-11T09:48:17.830Z,103280.16
2023-02-11T09:53:24.242Z,103278.16
2023-02-11T09:58:34.077Z,103281.81
2023-02-11T10:03:41.517Z,103289.31
2023-02-11T10:08:58.814Z,103303.16
2023-02-11T10:14:29.688Z,103319.91
2023-02-11T10:19:47.225Z,103325.47
2023-02-11T10:24:53.564Z,103330.16
2023-02-11T10:30:36.546Z,103342.91
2023-02-11T10:35:38.591Z,103345.44
2023-02-11T10:40:40.747Z,103343.75
2023-02-11T10:45:43.772Z,103353.34
2023-02-11T10:50:47.339Z,103349.94
2023-02-11T10:55:58.620Z,103349.81
2023-02-11T11:01:01.001Z,103352.44
2023-02-11T11:06:06.982Z,103348.31
2023-02-11T11:11:11.830Z,103359.78
2023-02-11T11:16:13.406Z,103363.41
2023-02-11T11:21:34.655Z,103362.69
2023-02-11T11:26:46.848Z,103369.31
2023-02-11T11:32:04.796Z,103370.13
2023-02-11T11:37:33.058Z,103370.97
2023-02-11T11:42:37.208Z,103365.41
2023-02-11T11:48:00.486Z,103367.09
2023-02-11T11:53:26.142Z,103354.63
2023-02-11T11:58:29.087Z,103343.53
2023-02-11T12:03:42.909Z,103332.19
2023-02-11T12:08:52.069Z,103331.75
2023-02-11T12:14:00.103Z,103323.28
2023-02-11T12:19:22.307Z,103320.84
2023-02-11T12:24:38.801Z,103318.78
2023-02-11T12:30:15.684Z,103308.97
2023-02-11T12:35:23.080Z,103310.94
2023-02-11T12:40:50.590Z,103299.63
2023-02-11T12:46:14.607Z,103311.09
2023-02-11T12:51:32.114Z,103323.25
2023-02-11T12:56:45.117Z,103317.91
2023-02-11T13:01:49.655Z,103320.56
2023-02-11T13:06:57.541Z,103311.66
2023-02-11T13:12:23.474Z,103321.44
2023-02-11T13:17:56.697Z,103317.50
2023-02-11T13:23:19.143Z,103321.22
2023-02-11T13:28:34.323Z,103317.81
2023-02-11T13:33:43.031Z,103311.41
2023-02-11T13:39:05.829Z,103310.66
2023-02-11T13:44:10.071Z,103311.91
2023-02-11T13:49:20.613Z,103311.59
2023-02-11T13:54:31.099Z,103316.78
2023-02-11T13:59:33.179Z,103322.31
2023-02-11T14:04:53.211Z,103316.25
2023-02-11T14:09:57.072Z,103314.38
2023-02-11T14:15:25.192Z,103312.00
2023-02-11T14:20:42.014Z,103310.41
2023-02-11T14:25:45.453Z,103316.28
2023-02-11T14:31:00.014Z,103318.22
2023-02-11T14:36:18.332Z,103326.75
2023-02-11T14:41:24.263Z,103326.00
2023-02-11T14:46:35.704Z,103330.00
2023-02-11T14:51:40.663Z,103327.31
2023-02-11T14:56:42.491Z,103323.25
2023-02-11T15:01:48.763Z,103330.47
2023-02-11T15:06:50.640Z,103328.94
2023-02-11T15:11:52.786Z,103320.47
2023-02-11T15:16:58.098Z,103326.94
2023-02-11T15:21:59.702Z,103336.47
2023-02-11T15:27:15.488Z,103349.50
2023-02-11T15:32:19.796Z,103359.13
2023-02-11T15:37:29.737Z,103352.19
2023-02-11T15:42:40.992Z,103352.91
2023-02-11T15:47:51.475Z,103361.84
2023-02-11T15:52:55.279Z,103364.63
2023-02-11T15:58:00.568Z,103355.22
2023-02-11T16:03:02.285Z,103364.75
2023-02-11T16:08:35.425Z,103365.94
2023-02-11T16:13:47.254Z,103361.00
2023-02-11T16:19:04.860Z,103361.28
2023-02-11T16:24:15.798Z,103364.25
2023-02-11T16:29:25.929Z,103368.50
2023-02-11T16:34:28.439Z,103384.75
2023-02-11T16:39:30.117Z,103384.44
2023-02-11T16:44:35.617Z,103393.06
2023-02-11T16:49:40.849Z,103406.03
2023-02-11T16:54:42.514Z,103403.22
2023-02-11T16:59:44.628Z,103410.53
2023-02-11T17:04:46.819Z,103415.63
2023-02-11T17:09:48.388Z,103413.63
2023-02-11T17:14:50.900Z,103411.81
2023-02-11T17:19:52.452Z,103416.31
2023-02-11T17:24:56.264Z,103424.59
2023-02-11T17:30:00.907Z,103437.72
2023-02-11T17:35:02.482Z,103445.78
2023-02-11T17:40:04.177Z,103452.97
2023-02-11T17:45:06.489Z,103450.03
2023-02-11T17:50:10.189Z,103462.34
2023-02-11T17:55:13.026Z,103456.97
2023-02-11T18:00:15.231Z,103465.50
2023-02-11T18:05:16.733Z,103470.75
2023-02-11T18:10:19.064Z,103475.78
2023-02-11T18:15:22.539Z,103480.84
2023-02-11T18:20:24.158Z,103478.72
2023-02-11T18:25:25.719Z,103480.59
2023-02-11T18:30:28.000Z,103483.41
2023-02-11T18:35:29.709Z,103495.13
2023-02-11T18:40:31.967Z,103495.91
2023-02-11T18:45:33.596Z,103501.91
2023-02-11T18:50:35.174Z,103507.63
2023-02-11T18:55:41.197Z,103517.34
2023-02-11T19:00:45.524Z,103521.06
2023-02-11T19:05:51.488Z,103523.94
2023-02-11T19:10:55.760Z,103521.63
2023-02-11T19:15:58.283Z,103530.31
2023-02-11T19:21:00.156Z,103535.91
2023-02-11T19:26:04.456Z,103540.94
2023-02-11T19:31:11.464Z,103551.56
2023-02-11T19:36:16.485Z,103546.31
2023-02-11T19:41:23.185Z,103545.66
2023-02-11T19:46:28.494Z,103554.16
2023-02-11T19:51:33.801Z,103556.81
2023-02-11T19:56:36.463Z,103554.69
2023-02-11T20:01:39.772Z,103563.28
2023-02-11T20:06:43.700Z,103570.38
2023-02-11T20:11:45.743Z,103578.41
2023-02-11T20:16:49.723Z,103585.22
2023-02-11T20:21:53.788Z,103587.03
2023-02-11T20:26:56.650Z,103591.94
2023-02-11T20:31:58.320Z,103585.22
2023-02-11T20:37:03.318Z,103587.34
2023-02-11T20:42:09.546Z,103588.69
2023-02-11T20:47:12.128Z,103604.47
2023-02-11T20:52:13.620Z,103591.41
2023-02-11T20:57:16.316Z,103600.66
2023-02-11T21:02:19.151Z,103604.78
2023-02-11T21:07:23.809Z,103611.06
2023-02-11T21:12:25.294Z,103614.28
2023-02-11T21:17:27.521Z,103630.84
2023-02-11T21:22:36.289Z,103631.84
2023-02-11T21:27:38.281Z,103636.91
2023-02-11T21:32:39.756Z,103632.75
2023-02-11T21:37:41.274Z,103635.31
2023-02-11T21:42:42.963Z,103639.47
2023-02-11T21:47:44.437Z,103639.47
2023-02-11T21:52:47.099Z,103651.44
2023-02-11T21:57:48.729Z,103653.47
2023-02-11T22:02:50.542Z,103653.22
2023-02-11T22:07:52.092Z,103666.31
2023-02-11T22:12:53.621Z,103655.53
2023-02-11T22:17:55.324Z,103659.78
2023-02-11T22:22:59.763Z,103656.56
2023-02-11T22:28:02.547Z,103666.59
2023-02-11T22:33:08.721Z,103655.00
2023-02-11T22:38:11.185Z,103655.31
2023-02-11T22:43:13.846Z,103664.81
2023-02-11T22:48:15.441Z,103667.41
2023-02-11T22:53:20.279Z,103667.91
2023-02-11T22:58:22.046Z,103668.41
2023-02-11T23:03:23.482Z,103671.22
2023-02-11T23:08:28.587Z,103670.97
2023-02-11T23:13:30.073Z,103662.34
2023-02-11T23:18:35.494Z,103666.97
2023-02-11T23:23:37.054Z,103662.50
2023-02-11T23:28:39.441Z,103662.63
2023-02-11T23:33:40.848Z,103670.31
2023-02-11T23:38:42.626Z,103663.63
2023-02-11T23:43:51.170Z,103667.88
2023-02-11T23:48:53.271Z,103670.84
2023-02-11T23:53:56.233Z,103677.03
2023-02-11T23:58:58.911Z,103677.56
